createdAt,value
2019-02-15T00:00:36.490Z,16.10
2019-02-15T00:01:36.461Z,16.20
2019-02-15T00:02:36.446Z,16.50
2019-02-15T00:03:36.458Z,16.60
2019-02-15T00:04:36.435Z,15.50
2019-02-15T00:05:36.436Z,16.40
2019-02-15T00:06:36.413Z,15.40
2019-02-15T00:07:36.402Z,16.30
2019-02-15T00:08:36.381Z,16.00
2019-02-15T00:09:36.382Z,15.40
2019-02-15T00:10:36.400Z,16.10
2019-02-15T00:11:36.347Z,15.40
2019-02-15T00:12:36.345Z,16.10
2019-02-15T00:13:36.334Z,16.00
2019-02-15T00:14:36.317Z,15.70
2019-02-15T00:15:36.340Z,16.30
2019-02-15T00:16:36.294Z,16.20
2019-02-15T00:17:36.302Z,15.10
2019-02-15T00:18:36.278Z,15.20
2019-02-15T00:19:36.272Z,14.30
2019-02-15T00:20:36.268Z,14.60
2019-02-15T00:21:36.265Z,15.10
2019-02-15T00:22:36.243Z,14.30
2019-02-15T00:23:36.234Z,14.30
2019-02-15T00:24:36.206Z,14.30
2019-02-15T00:25:36.194Z,14.40
2019-02-15T00:26:36.218Z,14.00
2019-02-15T00:27:36.174Z,13.50
2019-02-15T00:28:36.169Z,14.00
2019-02-15T00:29:36.166Z,14.20
2019-02-15T00:30:36.144Z,14.60
2019-02-15T00:31:36.187Z,13.90
2019-02-15T00:32:36.123Z,14.20
2019-02-15T00:33:36.129Z,13.70
2019-02-15T00:34:36.100Z,14.30
2019-02-15T00:35:36.094Z,13.20
2019-02-15T00:36:36.101Z,13.90
2019-02-15T00:37:36.068Z,14.60
2019-02-15T00:38:36.050Z,14.20
2019-02-15T00:39:36.046Z,14.30
2019-02-15T00:40:36.030Z,14.00
2019-02-15T00:41:36.064Z,14.10
2019-02-15T00:42:36.010Z,13.00
2019-02-15T00:43:36.002Z,14.10
2019-02-15T00:44:35.996Z,14.00
2019-02-15T00:45:35.980Z,14.40
2019-02-15T00:46:36.004Z,14.00
2019-02-15T00:47:36.008Z,13.70
2019-02-15T00:48:35.957Z,14.20
2019-02-15T00:49:35.939Z,14.60
2019-02-15T00:50:35.968Z,14.10
2019-02-15T00:51:35.915Z,14.20
2019-02-15T00:52:35.948Z,14.10
2019-02-15T00:53:35.898Z,14.10
2019-02-15T00:54:35.886Z,13.80
2019-02-15T00:55:35.866Z,13.80
2019-02-15T00:56:35.893Z,13.90
2019-02-15T00:57:35.871Z,14.30
2019-02-15T00:58:35.860Z,13.70
2019-02-15T00:59:35.822Z,14.40
2019-02-15T01:00:35.825Z,13.70
2019-02-15T01:01:35.798Z,14.60
2019-02-15T01:02:35.821Z,14.70
2019-02-15T01:03:35.790Z,13.90
2019-02-15T01:04:35.790Z,14.30
2019-02-15T01:05:35.762Z,13.70
2019-02-15T01:06:35.746Z,14.60
2019-02-15T01:07:35.758Z,13.80
2019-02-15T01:08:35.733Z,13.90
2019-02-15T01:09:35.752Z,14.10
2019-02-15T01:10:35.731Z,13.90
2019-02-15T01:11:35.697Z,13.40
2019-02-15T01:12:35.708Z,13.80
2019-02-15T01:13:35.680Z,14.10
2019-02-15T01:14:35.691Z,14.40
2019-02-15T01:15:35.654Z,14.50
2019-02-15T01:16:35.636Z,14.10
2019-02-15T01:17:35.655Z,14.20
2019-02-15T01:18:35.643Z,13.70
2019-02-15T01:19:35.656Z,14.00
2019-02-15T01:20:35.610Z,13.50
2019-02-15T01:21:35.584Z,13.90
2019-02-15T01:22:35.597Z,13.90
2019-02-15T01:23:35.580Z,13.70
2019-02-15T01:24:35.556Z,13.40
2019-02-15T01:25:35.560Z,13.10
2019-02-15T01:26:35.531Z,13.40
2019-02-15T01:27:35.515Z,13.70
2019-02-15T01:28:35.550Z,13.30
2019-02-15T01:29:35.510Z,13.60
2019-02-15T01:30:35.494Z,13.40
2019-02-15T01:31:35.506Z,13.70
2019-02-15T01:32:35.467Z,13.20
2019-02-15T01:33:35.488Z,13.50
2019-02-15T01:34:35.484Z,13.60
2019-02-15T01:35:35.456Z,13.60
2019-02-15T01:36:35.426Z,13.40
2019-02-15T01:37:35.414Z,14.40
2019-02-15T01:38:35.429Z,14.10
2019-02-15T01:39:35.399Z,13.60
2019-02-15T01:40:35.375Z,13.70
2019-02-15T01:41:35.389Z,13.10
2019-02-15T01:42:35.363Z,13.40
2019-02-15T01:43:40.221Z,13.10
2019-02-15T01:44:36.353Z,14.00
2019-02-15T01:45:35.320Z,13.30
2019-02-15T01:46:35.330Z,14.10
2019-02-15T01:47:35.298Z,13.70
2019-02-15T01:48:35.307Z,13.30
2019-02-15T01:49:35.299Z,13.90
2019-02-15T01:50:35.266Z,14.00
2019-02-15T01:51:35.263Z,13.50
2019-02-15T01:52:35.249Z,14.20
2019-02-15T01:53:35.275Z,13.90
2019-02-15T01:54:35.223Z,13.70
2019-02-15T01:55:35.245Z,13.50
2019-02-15T01:56:35.198Z,13.80
2019-02-15T01:57:35.195Z,13.70
2019-02-15T01:58:35.210Z,14.20
2019-02-15T01:59:35.172Z,14.70
2019-02-15T02:00:35.186Z,14.50
2019-02-15T02:01:35.152Z,14.90
2019-02-15T02:02:35.140Z,14.20
2019-02-15T02:03:35.134Z,14.60
2019-02-15T02:04:35.147Z,13.90
2019-02-15T02:05:35.117Z,14.30
2019-02-15T02:06:35.103Z,14.80
2019-02-15T02:07:35.084Z,14.60
2019-02-15T02:08:35.098Z,14.00
2019-02-15T02:09:35.063Z,14.90
2019-02-15T02:10:35.083Z,13.70
2019-02-15T02:11:35.075Z,13.60
2019-02-15T02:12:35.025Z,14.60
2019-02-15T02:13:35.015Z,14.30
2019-02-15T02:14:35.056Z,14.00
2019-02-15T02:15:35.017Z,14.60
2019-02-15T02:16:34.981Z,13.80
2019-02-15T02:17:35.020Z,14.90
2019-02-15T02:18:34.963Z,14.60
2019-02-15T02:19:34.960Z,14.30
2019-02-15T02:20:35.000Z,13.80
2019-02-15T02:21:34.931Z,14.20
2019-02-15T02:22:34.922Z,14.50
2019-02-15T02:23:34.910Z,14.30
2019-02-15T02:24:34.897Z,14.30
2019-02-15T02:25:34.916Z,14.20
2019-02-15T02:26:34.889Z,14.20
2019-02-15T02:27:34.858Z,14.60
2019-02-15T02:28:34.850Z,14.40
2019-02-15T02:29:34.837Z,14.20
2019-02-15T02:30:34.868Z,14.50
2019-02-15T02:31:34.826Z,14.30
2019-02-15T02:32:34.806Z,13.80
2019-02-15T02:33:34.815Z,13.40
2019-02-15T02:34:34.781Z,13.70
2019-02-15T02:35:34.816Z,14.50
2019-02-15T02:36:34.767Z,14.00
2019-02-15T02:37:34.753Z,13.80
2019-02-15T02:38:34.749Z,14.20
2019-02-15T02:39:34.733Z,14.80
2019-02-15T02:40:34.717Z,13.80
2019-02-15T02:41:34.743Z,14.50
2019-02-15T02:42:34.700Z,14.30
2019-02-15T02:43:34.689Z,14.00
2019-02-15T02:44:34.684Z,14.70
2019-02-15T02:45:34.666Z,13.30
2019-02-15T02:46:34.671Z,14.30
2019-02-15T02:47:34.662Z,13.90
2019-02-15T02:48:34.632Z,14.40
2019-02-15T02:49:34.629Z,13.60
2019-02-15T02:50:34.647Z,13.70
2019-02-15T02:51:34.620Z,12.90
2019-02-15T02:52:34.587Z,14.00
2019-02-15T02:53:34.603Z,13.50
2019-02-15T02:54:34.573Z,13.90
2019-02-15T02:55:34.556Z,13.70
2019-02-15T02:56:34.561Z,13.80
2019-02-15T02:57:34.552Z,13.10
2019-02-15T02:58:34.521Z,12.80
2019-02-15T02:59:34.519Z,13.10
2019-02-15T03:00:34.511Z,13.30
2019-02-15T03:01:34.503Z,12.70
2019-02-15T03:02:34.506Z,13.20
2019-02-15T03:03:34.472Z,13.40
2019-02-15T03:04:34.498Z,13.20
2019-02-15T03:05:34.452Z,13.00
2019-02-15T03:06:34.455Z,14.50
2019-02-15T03:07:34.447Z,13.70
2019-02-15T03:08:34.459Z,13.70
2019-02-15T03:09:34.425Z,13.90
2019-02-15T03:10:34.400Z,13.60
2019-02-15T03:11:34.397Z,13.90
2019-02-15T03:12:34.390Z,13.70
2019-02-15T03:13:34.394Z,14.00
2019-02-15T03:14:34.355Z,13.80
2019-02-15T03:15:34.371Z,12.60
2019-02-15T03:16:34.324Z,13.60
2019-02-15T03:17:34.362Z,13.60
2019-02-15T03:18:34.332Z,13.80
2019-02-15T03:19:34.291Z,13.10
2019-02-15T03:20:34.283Z,14.00
2019-02-15T03:21:34.282Z,13.40
2019-02-15T03:22:34.277Z,13.70
2019-02-15T03:23:34.274Z,13.70
2019-02-15T03:24:34.243Z,13.10
2019-02-15T03:25:34.233Z,13.40
2019-02-15T03:26:34.225Z,13.20
2019-02-15T03:27:34.237Z,13.40
2019-02-15T03:28:34.213Z,13.60
2019-02-15T03:29:34.207Z,13.20
2019-02-15T03:30:34.200Z,13.40
2019-02-15T03:31:34.172Z,13.80
2019-02-15T03:32:34.164Z,13.30
2019-02-15T03:33:34.171Z,13.30
2019-02-15T03:34:36.275Z,14.30
2019-02-15T03:35:34.150Z,13.60
2019-02-15T03:36:34.155Z,14.00
2019-02-15T03:37:34.101Z,13.60
2019-02-15T03:38:34.122Z,14.30
2019-02-15T03:39:34.077Z,13.80
2019-02-15T03:40:34.091Z,13.90
2019-02-15T03:41:34.082Z,12.50
2019-02-15T03:42:34.076Z,12.90
2019-02-15T03:43:34.070Z,13.60
2019-02-15T03:44:34.041Z,13.90
2019-02-15T03:45:34.034Z,13.90
2019-02-15T03:46:34.008Z,12.60
2019-02-15T03:47:34.006Z,12.30
2019-02-15T03:48:34.018Z,13.80
2019-02-15T03:49:33.975Z,14.00
2019-02-15T03:50:33.957Z,12.60
2019-02-15T03:51:33.949Z,12.80
2019-02-15T03:52:33.946Z,12.50
2019-02-15T03:53:33.953Z,13.30
2019-02-15T03:54:33.942Z,13.40
2019-02-15T03:55:33.931Z,14.10
2019-02-15T03:56:33.907Z,13.20
2019-02-15T03:57:33.887Z,12.90
2019-02-15T03:58:33.882Z,13.70
2019-02-15T03:59:33.871Z,12.90
2019-02-15T04:00:33.879Z,13.60
2019-02-15T04:01:33.854Z,13.80
2019-02-15T04:02:33.829Z,12.60
2019-02-15T04:03:33.821Z,12.80
2019-02-15T04:04:33.825Z,13.30
2019-02-15T04:05:33.807Z,13.30
2019-02-15T04:06:33.801Z,13.20
2019-02-15T04:07:33.785Z,12.60
2019-02-15T04:08:33.768Z,12.60
2019-02-15T04:09:33.780Z,12.50
2019-02-15T04:10:33.762Z,12.90
2019-02-15T04:11:33.766Z,12.80
2019-02-15T04:12:33.727Z,12.60
2019-02-15T04:13:33.721Z,12.20
2019-02-15T04:14:33.727Z,12.80
2019-02-15T04:15:33.690Z,12.90
2019-02-15T04:16:33.679Z,12.70
2019-02-15T04:17:33.673Z,12.70
2019-02-15T04:18:33.667Z,13.40
2019-02-15T04:19:33.671Z,12.80
2019-02-15T04:20:33.638Z,12.70
2019-02-15T04:21:33.629Z,12.40
2019-02-15T04:22:33.619Z,12.60
2019-02-15T04:23:33.657Z,12.40
2019-02-15T04:24:33.610Z,12.60
2019-02-15T04:25:33.600Z,12.50
2019-02-15T04:26:33.575Z,12.40
2019-02-15T04:27:33.569Z,12.50
2019-02-15T04:28:33.550Z,12.80
2019-02-15T04:29:33.543Z,13.60
2019-02-15T04:30:33.551Z,13.90
2019-02-15T04:31:33.550Z,13.10
2019-02-15T04:32:33.506Z,13.40
2019-02-15T04:33:33.497Z,13.50
2019-02-15T04:34:33.492Z,12.80
2019-02-15T04:35:33.501Z,12.80
2019-02-15T04:36:33.471Z,12.70
2019-02-15T04:37:33.454Z,12.80
2019-02-15T04:38:33.447Z,13.00
2019-02-15T04:39:33.442Z,13.20
2019-02-15T04:40:33.453Z,12.50
2019-02-15T04:41:33.452Z,12.20
2019-02-15T04:42:33.402Z,13.00
2019-02-15T04:43:33.394Z,13.40
2019-02-15T04:44:42.364Z,14.40
2019-02-15T04:45:34.392Z,12.70
2019-02-15T04:46:33.371Z,13.40
2019-02-15T04:47:33.346Z,12.70
2019-02-15T04:48:33.344Z,12.80
2019-02-15T04:49:33.331Z,12.90
2019-02-15T04:50:33.344Z,13.00
2019-02-15T04:51:33.321Z,14.00
2019-02-15T04:52:33.309Z,13.00
2019-02-15T04:53:33.282Z,13.20
2019-02-15T04:54:33.287Z,13.10
2019-02-15T04:55:33.260Z,13.80
2019-02-15T04:56:33.272Z,13.30
2019-02-15T04:57:33.249Z,13.80
2019-02-15T04:58:33.224Z,13.50
2019-02-15T04:59:33.237Z,12.70
2019-02-15T05:00:33.202Z,13.30
2019-02-15T05:01:33.209Z,12.40
2019-02-15T05:02:33.181Z,13.40
2019-02-15T05:03:33.174Z,12.70
2019-02-15T05:04:33.158Z,13.70
2019-02-15T05:05:33.153Z,12.70
2019-02-15T05:06:33.154Z,12.70
2019-02-15T05:07:33.152Z,13.50
2019-02-15T05:08:33.161Z,12.60
2019-02-15T05:09:33.114Z,12.80
2019-02-15T05:10:33.115Z,12.80
2019-02-15T05:11:33.117Z,13.00
2019-02-15T05:12:33.080Z,12.20
2019-02-15T05:13:33.088Z,12.80
2019-02-15T05:14:33.101Z,13.30
2019-02-15T05:15:33.046Z,13.20
2019-02-15T05:16:33.055Z,13.50
2019-02-15T05:17:33.039Z,12.40
2019-02-15T05:18:33.009Z,13.50
2019-02-15T05:19:32.999Z,12.90
2019-02-15T05:20:32.999Z,12.80
2019-02-15T05:21:32.981Z,12.80
2019-02-15T05:22:33.032Z,13.80
2019-02-15T05:23:32.965Z,13.50
2019-02-15T05:24:32.964Z,13.40
2019-02-15T05:25:32.932Z,12.70
2019-02-15T05:26:32.951Z,13.30
2019-02-15T05:27:32.950Z,13.20
2019-02-15T05:28:32.910Z,13.40
2019-02-15T05:29:32.898Z,13.00
2019-02-15T05:30:32.895Z,11.60
2019-02-15T05:31:32.892Z,12.70
2019-02-15T05:32:32.878Z,13.10
2019-02-15T05:33:32.852Z,12.60
2019-02-15T05:34:32.842Z,12.70
2019-02-15T05:35:32.836Z,12.80
2019-02-15T05:36:32.825Z,13.20
2019-02-15T05:37:32.822Z,13.00
2019-02-15T05:38:32.805Z,13.70
2019-02-15T05:39:32.794Z,12.90
2019-02-15T05:40:32.774Z,13.00
2019-02-15T05:41:32.770Z,12.50
2019-02-15T05:42:32.812Z,13.10
2019-02-15T05:43:32.741Z,12.40
2019-02-15T05:44:32.749Z,12.50
2019-02-15T05:45:32.741Z,12.80
2019-02-15T05:46:32.707Z,12.70
2019-02-15T05:47:32.718Z,12.70
2019-02-15T05:48:32.689Z,13.00
2019-02-15T05:49:32.682Z,12.70
2019-02-15T05:50:32.663Z,12.50
2019-02-15T05:51:32.686Z,12.90
2019-02-15T05:52:32.665Z,12.90
2019-02-15T05:53:32.632Z,13.30
2019-02-15T05:54:32.670Z,12.70
2019-02-15T05:55:32.625Z,12.50
2019-02-15T05:56:32.599Z,13.00
2019-02-15T05:57:32.598Z,13.00
2019-02-15T05:58:32.624Z,13.10
2019-02-15T05:59:32.576Z,12.70
2019-02-15T06:00:37.009Z,13.30
2019-02-15T06:01:32.551Z,13.50
2019-02-15T06:02:32.575Z,12.60
2019-02-15T06:03:32.550Z,12.60
2019-02-15T06:04:32.517Z,13.20
2019-02-15T06:05:32.525Z,13.70
2019-02-15T06:06:32.493Z,13.10
2019-02-15T06:07:32.496Z,12.70
2019-02-15T06:08:32.497Z,12.20
2019-02-15T06:09:32.459Z,14.30
2019-02-15T06:10:32.446Z,12.60
2019-02-15T06:11:32.459Z,13.30
2019-02-15T06:12:32.429Z,13.40
2019-02-15T06:13:32.454Z,12.20
2019-02-15T06:14:32.406Z,12.70
2019-02-15T06:15:32.397Z,12.80
2019-02-15T06:16:32.396Z,13.90
2019-02-15T06:17:32.375Z,12.60
2019-02-15T06:18:32.400Z,12.60
2019-02-15T06:19:32.379Z,12.20
2019-02-15T06:20:32.342Z,12.80
2019-02-15T06:21:32.329Z,12.60
2019-02-15T06:22:32.331Z,12.70
2019-02-15T06:23:32.306Z,12.30
2019-02-15T06:24:32.343Z,13.00
2019-02-15T06:25:32.282Z,12.70
2019-02-15T06:26:32.275Z,12.70
2019-02-15T06:27:32.264Z,12.50
2019-02-15T06:28:32.259Z,13.10
2019-02-15T06:29:32.277Z,12.50
2019-02-15T06:30:32.254Z,12.60
2019-02-15T06:31:32.236Z,12.30
2019-02-15T06:32:32.232Z,13.50
2019-02-15T06:33:32.199Z,12.80
2019-02-15T06:34:32.236Z,12.90
2019-02-15T06:35:33.160Z,14.30
2019-02-15T06:36:32.182Z,14.20
2019-02-15T06:37:32.184Z,13.30
2019-02-15T06:38:34.808Z,13.40
2019-02-15T06:39:32.165Z,13.80
2019-02-15T06:40:32.146Z,13.90
2019-02-15T06:41:32.129Z,13.90
2019-02-15T06:42:32.104Z,13.60
2019-02-15T06:43:32.094Z,12.90
2019-02-15T06:44:32.147Z,13.10
2019-02-15T06:45:32.078Z,13.30
2019-02-15T06:46:32.090Z,13.70
2019-02-15T06:47:32.054Z,13.30
2019-02-15T06:48:32.059Z,13.20
2019-02-15T06:49:32.045Z,13.20
2019-02-15T06:50:32.034Z,12.50
2019-02-15T06:51:32.006Z,12.70
2019-02-15T06:52:31.997Z,13.10
2019-02-15T06:53:31.985Z,12.90
2019-02-15T06:54:31.979Z,12.90
2019-02-15T06:55:32.000Z,11.90
2019-02-15T06:56:31.952Z,13.20
2019-02-15T06:57:31.941Z,12.50
2019-02-15T06:58:31.974Z,12.70
2019-02-15T06:59:31.927Z,12.60
2019-02-15T07:00:31.926Z,12.50
2019-02-15T07:01:31.898Z,12.10
2019-02-15T07:02:31.892Z,12.80
2019-02-15T07:03:31.881Z,12.90
2019-02-15T07:04:31.902Z,12.70
2019-02-15T07:05:31.878Z,12.80
2019-02-15T07:06:31.867Z,12.20
2019-02-15T07:07:31.837Z,13.80
2019-02-15T07:08:31.913Z,13.50
2019-02-15T07:09:31.823Z,13.60
2019-02-15T07:10:31.824Z,13.10
2019-02-15T07:11:31.795Z,13.20
2019-02-15T07:12:31.819Z,13.40
2019-02-15T07:13:31.766Z,12.90
2019-02-15T07:14:31.779Z,13.50
2019-02-15T07:15:33.709Z,13.00
2019-02-15T07:16:31.768Z,13.30
2019-02-15T07:17:31.722Z,12.90
2019-02-15T07:18:31.718Z,12.40
2019-02-15T07:19:31.708Z,12.90
2019-02-15T07:20:31.699Z,13.90
2019-02-15T07:21:31.697Z,12.60
2019-02-15T07:22:31.674Z,13.00
2019-02-15T07:23:31.661Z,12.40
2019-02-15T07:24:31.665Z,12.20
2019-02-15T07:25:31.642Z,12.30
2019-02-15T07:26:31.647Z,12.40
2019-02-15T07:27:31.637Z,12.60
2019-02-15T07:28:31.605Z,12.40
2019-02-15T07:29:31.594Z,12.60
2019-02-15T07:30:31.588Z,11.40
2019-02-15T07:31:31.596Z,12.20
2019-02-15T07:32:31.560Z,11.00
2019-02-15T07:33:31.570Z,11.30
2019-02-15T07:34:31.565Z,12.10
2019-02-15T07:35:31.539Z,11.10
2019-02-15T07:36:31.568Z,10.80
2019-02-15T07:37:31.522Z,11.60
2019-02-15T07:38:31.498Z,11.90
2019-02-15T07:39:31.499Z,11.80
2019-02-15T07:40:31.477Z,12.50
2019-02-15T07:41:31.497Z,12.00
2019-02-15T07:42:31.455Z,11.60
2019-02-15T07:43:31.442Z,11.50
2019-02-15T07:44:31.445Z,11.30
2019-02-15T07:45:31.425Z,11.70
2019-02-15T07:46:31.414Z,11.90
2019-02-15T07:47:31.447Z,12.10
2019-02-15T07:48:31.411Z,11.60
2019-02-15T07:49:31.387Z,12.00
2019-02-15T07:50:31.371Z,11.40
2019-02-15T07:51:31.355Z,11.80
2019-02-15T07:52:31.369Z,11.90
2019-02-15T07:53:31.341Z,11.20
2019-02-15T07:54:31.343Z,11.70
2019-02-15T07:55:31.317Z,12.50
2019-02-15T07:56:31.301Z,11.80
2019-02-15T07:57:31.331Z,12.20
2019-02-15T07:58:31.289Z,12.00
2019-02-15T07:59:31.278Z,11.70
2019-02-15T08:00:31.275Z,12.20
2019-02-15T08:01:31.266Z,11.50
2019-02-15T08:02:31.276Z,11.00
2019-02-15T08:03:31.225Z,11.50
2019-02-15T08:04:31.215Z,12.10
2019-02-15T08:05:31.202Z,11.70
2019-02-15T08:06:31.206Z,10.90
2019-02-15T08:07:31.182Z,11.30
2019-02-15T08:08:31.197Z,11.40
2019-02-15T08:09:31.176Z,10.80
2019-02-15T08:10:31.144Z,11.20
2019-02-15T08:11:31.149Z,11.20
2019-02-15T08:12:31.122Z,11.00
2019-02-15T08:13:31.128Z,11.80
2019-02-15T08:14:31.101Z,10.60
2019-02-15T08:15:36.317Z,10.70
2019-02-15T08:16:32.084Z,10.50
2019-02-15T08:17:31.083Z,11.70
2019-02-15T08:18:31.083Z,11.50
2019-02-15T08:19:31.066Z,11.60
2019-02-15T08:20:31.041Z,11.60
2019-02-15T08:21:31.024Z,10.90
2019-02-15T08:22:31.022Z,11.80
2019-02-15T08:23:31.022Z,10.90
2019-02-15T08:24:31.012Z,11.10
2019-02-15T08:25:30.987Z,11.00
2019-02-15T08:26:30.978Z,10.70
2019-02-15T08:27:31.519Z,10.80
2019-02-15T08:28:30.981Z,11.00
2019-02-15T08:29:30.952Z,11.40
2019-02-15T08:30:30.933Z,11.20
2019-02-15T08:31:30.917Z,10.70
2019-02-15T08:32:30.928Z,11.20
2019-02-15T08:33:30.907Z,11.20
2019-02-15T08:34:30.899Z,11.50
2019-02-15T08:35:30.884Z,11.60
2019-02-15T08:36:30.859Z,11.50
2019-02-15T08:37:30.847Z,11.80
2019-02-15T08:38:30.836Z,10.90
2019-02-15T08:39:30.851Z,11.50
2019-02-15T08:40:30.829Z,11.10
2019-02-15T08:41:30.808Z,10.90
2019-02-15T08:42:30.793Z,11.30
2019-02-15T08:43:30.794Z,11.50
2019-02-15T08:44:30.796Z,11.70
2019-02-15T08:45:30.757Z,11.80
2019-02-15T08:46:30.747Z,11.00
2019-02-15T08:47:30.739Z,11.40
2019-02-15T08:48:30.725Z,11.70
2019-02-15T08:49:30.731Z,11.20
2019-02-15T08:50:30.737Z,11.50
2019-02-15T08:51:30.702Z,12.00
2019-02-15T08:52:30.705Z,11.60
2019-02-15T08:53:30.675Z,11.20
2019-02-15T08:54:30.681Z,10.90
2019-02-15T08:55:30.655Z,11.10
2019-02-15T08:56:30.643Z,11.00
2019-02-15T08:57:30.627Z,10.70
2019-02-15T08:58:30.624Z,11.00
2019-02-15T08:59:30.625Z,10.90
2019-02-15T09:00:30.595Z,10.80
2019-02-15T09:01:30.597Z,10.90
2019-02-15T09:02:30.582Z,10.80
2019-02-15T09:03:30.595Z,10.90
2019-02-15T09:04:30.567Z,10.10
2019-02-15T09:05:30.594Z,10.20
2019-02-15T09:06:30.557Z,10.30
2019-02-15T09:07:30.522Z,9.90
2019-02-15T09:08:30.515Z,10.20
2019-02-15T09:09:30.498Z,10.60
2019-02-15T09:10:30.514Z,10.10
2019-02-15T09:11:30.484Z,10.90
2019-02-15T09:12:30.464Z,9.90
2019-02-15T09:13:30.455Z,10.70
2019-02-15T09:14:30.443Z,10.30
2019-02-15T09:15:30.455Z,10.80
2019-02-15T09:16:30.423Z,10.30
2019-02-15T09:17:30.417Z,10.50
2019-02-15T09:18:30.418Z,10.60
2019-02-15T09:19:30.390Z,11.00
2019-02-15T09:20:30.396Z,10.00
2019-02-15T09:21:30.376Z,10.10
2019-02-15T09:22:30.368Z,9.80
2019-02-15T09:23:30.353Z,10.40
2019-02-15T09:24:30.351Z,11.10
2019-02-15T09:25:30.338Z,10.30
2019-02-15T09:26:30.321Z,10.80
2019-02-15T09:27:30.303Z,10.60
2019-02-15T09:28:30.292Z,10.20
2019-02-15T09:29:30.288Z,10.70
2019-02-15T09:30:30.296Z,11.20
2019-02-15T09:31:30.270Z,11.00
2019-02-15T09:32:30.246Z,11.10
2019-02-15T09:33:30.245Z,10.80
2019-02-15T09:34:30.230Z,11.30
2019-02-15T09:35:30.216Z,10.30
2019-02-15T09:36:30.225Z,12.00
2019-02-15T09:37:30.194Z,10.90
2019-02-15T09:38:30.183Z,11.00
2019-02-15T09:39:30.172Z,11.50
2019-02-15T09:40:30.190Z,11.50
2019-02-15T09:41:30.192Z,11.30
2019-02-15T09:42:30.150Z,11.40
2019-02-15T09:43:30.136Z,11.40
2019-02-15T09:44:30.117Z,11.80
2019-02-15T09:45:30.110Z,11.50
2019-02-15T09:46:30.112Z,11.00
2019-02-15T09:47:30.095Z,12.00
2019-02-15T09:48:30.073Z,11.70
2019-02-15T09:49:30.064Z,11.40
2019-02-15T09:50:30.059Z,12.10
2019-02-15T09:51:30.053Z,12.10
2019-02-15T09:52:30.050Z,11.40
2019-02-15T09:53:30.034Z,11.60
2019-02-15T09:54:30.020Z,12.70
2019-02-15T09:55:30.012Z,11.80
2019-02-15T09:56:30.001Z,11.90
2019-02-15T09:57:29.979Z,11.80
2019-02-15T09:58:29.961Z,12.20
2019-02-15T09:59:29.951Z,12.00
2019-02-15T10:00:29.932Z,12.10
2019-02-15T10:01:29.953Z,12.50
2019-02-15T10:02:29.957Z,12.60
2019-02-15T10:03:29.900Z,12.30
2019-02-15T10:04:29.904Z,11.30
2019-02-15T10:05:29.889Z,12.10
2019-02-15T10:06:29.870Z,11.60
2019-02-15T10:07:29.915Z,12.10
2019-02-15T10:08:29.862Z,12.10
2019-02-15T10:09:29.837Z,12.30
2019-02-15T10:10:29.829Z,11.70
2019-02-15T10:11:29.818Z,12.10
2019-02-15T10:12:29.826Z,11.90
2019-02-15T10:13:29.797Z,11.60
2019-02-15T10:14:29.779Z,11.20
2019-02-15T10:15:29.782Z,11.10
2019-02-15T10:16:31.426Z,11.50
2019-02-15T10:17:29.776Z,11.30
2019-02-15T10:18:29.744Z,11.80
2019-02-15T10:19:29.728Z,12.50
2019-02-15T10:20:29.720Z,11.20
2019-02-15T10:21:29.708Z,10.70
2019-02-15T10:22:29.727Z,11.40
2019-02-15T10:23:29.714Z,11.40
2019-02-15T10:24:29.683Z,11.40
2019-02-15T10:25:29.673Z,10.80
2019-02-15T10:26:29.646Z,11.30
2019-02-15T10:27:29.640Z,11.60
2019-02-15T10:28:29.652Z,11.50
2019-02-15T10:29:29.631Z,11.30
2019-02-15T10:30:29.601Z,11.40
2019-02-15T10:31:29.593Z,11.00
2019-02-15T10:32:29.586Z,10.60
2019-02-15T10:33:29.590Z,11.10
2019-02-15T10:34:29.577Z,11.20
2019-02-15T10:35:29.557Z,11.20
2019-02-15T10:36:29.545Z,10.80
2019-02-15T10:37:29.526Z,10.80
2019-02-15T10:38:29.532Z,11.10
2019-02-15T10:39:29.542Z,11.10
2019-02-15T10:40:29.494Z,11.20
2019-02-15T10:41:29.482Z,10.80
2019-02-15T10:42:29.500Z,10.50
2019-02-15T10:43:29.489Z,10.80
2019-02-15T10:44:29.480Z,10.10
2019-02-15T10:45:29.439Z,11.10
2019-02-15T10:46:37.497Z,10.70
2019-02-15T10:47:30.424Z,10.40
2019-02-15T10:48:29.462Z,10.60
2019-02-15T10:49:29.421Z,11.10
2019-02-15T10:50:29.390Z,10.60
2019-02-15T10:51:29.372Z,12.00
2019-02-15T10:52:29.364Z,10.40
2019-02-15T10:53:29.354Z,10.00
2019-02-15T10:54:29.360Z,10.90
2019-02-15T10:55:29.329Z,11.00
2019-02-15T10:56:29.319Z,10.70
2019-02-15T10:57:29.311Z,10.50
2019-02-15T10:58:29.295Z,10.90
2019-02-15T10:59:29.301Z,10.90
2019-02-15T11:00:29.282Z,11.10
2019-02-15T11:01:29.269Z,10.40
2019-02-15T11:02:29.251Z,10.40
2019-02-15T11:03:29.239Z,10.50
2019-02-15T11:04:29.263Z,10.60
2019-02-15T11:05:29.220Z,11.00
2019-02-15T11:06:29.218Z,11.40
2019-02-15T11:07:29.210Z,10.90
2019-02-15T11:08:29.192Z,11.10
2019-02-15T11:09:29.186Z,10.30
2019-02-15T11:10:29.233Z,11.00
2019-02-15T11:11:29.162Z,10.90
2019-02-15T11:12:29.136Z,11.60
2019-02-15T11:13:29.128Z,10.60
2019-02-15T11:14:29.153Z,11.50
2019-02-15T11:15:29.133Z,11.30
2019-02-15T11:16:29.100Z,10.80
2019-02-15T11:17:29.092Z,10.50
2019-02-15T11:18:29.096Z,10.70
2019-02-15T11:19:29.153Z,10.90
2019-02-15T11:20:29.127Z,11.50
2019-02-15T11:21:29.088Z,10.80
2019-02-15T11:22:29.193Z,11.10
2019-02-15T11:23:29.081Z,11.20
2019-02-15T11:24:29.113Z,11.80
2019-02-15T11:25:29.046Z,11.00
2019-02-15T11:26:28.990Z,11.60
2019-02-15T11:27:28.971Z,11.30
2019-02-15T11:28:28.959Z,11.20
2019-02-15T11:29:28.947Z,11.70
2019-02-15T11:30:28.962Z,10.90
2019-02-15T11:31:28.926Z,10.90
2019-02-15T11:32:28.922Z,10.60
2019-02-15T11:33:28.908Z,11.00
2019-02-15T11:34:28.900Z,10.80
2019-02-15T11:35:28.913Z,11.10
2019-02-15T11:36:29.885Z,11.60
2019-02-15T11:37:28.873Z,10.70
2019-02-15T11:38:28.861Z,10.70
2019-02-15T11:39:28.836Z,11.40
2019-02-15T11:40:28.834Z,10.50
2019-02-15T11:41:28.833Z,10.50
2019-02-15T11:42:28.816Z,11.40
2019-02-15T11:43:28.833Z,10.90
2019-02-15T11:44:28.871Z,11.30
2019-02-15T11:45:28.828Z,11.90
2019-02-15T11:46:28.763Z,11.30
2019-02-15T11:47:28.748Z,11.50
2019-02-15T11:48:29.530Z,11.70
2019-02-15T11:49:28.729Z,11.90
2019-02-15T11:50:28.738Z,11.90
2019-02-15T11:51:28.753Z,11.40
2019-02-15T11:52:28.697Z,12.00
2019-02-15T11:53:28.686Z,12.50
2019-02-15T11:54:28.704Z,11.60
2019-02-15T11:55:28.671Z,11.10
2019-02-15T11:56:28.678Z,11.30
2019-02-15T11:57:28.643Z,11.50
2019-02-15T11:58:28.634Z,10.90
2019-02-15T11:59:28.622Z,11.40
2019-02-15T12:00:28.611Z,11.60
2019-02-15T12:01:28.620Z,11.10
2019-02-15T12:02:28.586Z,11.20
2019-02-15T12:03:28.585Z,11.40
2019-02-15T12:04:28.569Z,10.70
2019-02-15T12:05:28.568Z,11.90
2019-02-15T12:06:28.568Z,11.10
2019-02-15T12:07:28.528Z,10.50
2019-02-15T12:08:28.534Z,11.00
2019-02-15T12:09:28.515Z,10.50
2019-02-15T12:10:28.515Z,10.60
2019-02-15T12:11:28.531Z,11.00
2019-02-15T12:12:28.489Z,10.80
2019-02-15T12:13:28.516Z,10.90
2019-02-15T12:14:28.458Z,10.20
2019-02-15T12:15:28.474Z,10.50
2019-02-15T12:16:28.454Z,11.40
2019-02-15T12:17:28.486Z,11.60
2019-02-15T12:18:28.425Z,10.70
2019-02-15T12:19:28.411Z,11.20
2019-02-15T12:20:28.416Z,11.70
2019-02-15T12:21:28.423Z,11.40
2019-02-15T12:22:28.391Z,10.30
2019-02-15T12:23:28.639Z,11.50
2019-02-15T12:24:28.354Z,10.60
2019-02-15T12:25:28.335Z,10.60
2019-02-15T12:26:28.358Z,10.90
2019-02-15T12:27:28.324Z,10.60
2019-02-15T12:28:28.312Z,10.40
2019-02-15T12:29:28.297Z,10.90
2019-02-15T12:30:28.292Z,10.80
2019-02-15T12:31:28.272Z,10.50
2019-02-15T12:32:28.302Z,10.70
2019-02-15T12:33:28.255Z,10.60
2019-02-15T12:34:28.250Z,10.40
2019-02-15T12:35:28.250Z,10.60
2019-02-15T12:36:28.242Z,10.80
2019-02-15T12:37:28.239Z,10.70
2019-02-15T12:38:28.197Z,10.50
2019-02-15T12:39:28.200Z,9.70
2019-02-15T12:40:28.184Z,10.20
2019-02-15T12:41:28.166Z,9.50
2019-02-15T12:42:28.185Z,9.60
2019-02-15T12:43:28.166Z,9.80
2019-02-15T12:44:28.160Z,9.80
2019-02-15T12:45:28.154Z,9.30
2019-02-15T12:46:28.122Z,9.60
2019-02-15T12:47:28.126Z,10.00
2019-02-15T12:48:28.132Z,9.90
2019-02-15T12:49:28.099Z,9.40
2019-02-15T12:50:28.076Z,10.10
2019-02-15T12:51:28.064Z,10.00
2019-02-15T12:52:28.053Z,9.40
2019-02-15T12:53:28.054Z,9.30